sensor_id;sensor_type;location;lat;lon;timestamp;temperature;humidity
44559;DHT22;30270;40.238;18.256;2022-09-30T00:01:35;21.00;99.90
44559;DHT22;30270;40.238;18.256;2022-09-30T00:04:03;21.00;99.90
44559;DHT22;30270;40.238;18.256;2022-09-30T00:06:32;21.00;99.90
44559;DHT22;30270;40.238;18.256;2022-09-30T00:09:02;21.00;99.90
44559;DHT22;30270;40.238;18.256;2022-09-30T00:11:33;21.00;99.90
44559;DHT22;30270;40.238;18.256;2022-09-30T00:14:01;21.00;99.90
44559;DHT22;30270;40.238;18.256;2022-09-30T00:16:32;21.00;99.90
44559;DHT22;30270;40.238;18.256;2022-09-30T00:19:00;21.00;99.90
44559;DHT22;30270;40.238;18.256;2022-09-30T00:21:32;21.00;99.90
44559;DHT22;30270;40.238;18.256;2022-09-30T00:24:03;20.90;99.90
44559;DHT22;30270;40.238;18.256;2022-09-30T00:26:32;20.90;99.90
44559;DHT22;30270;40.238;18.256;2022-09-30T00:29:01;20.90;99.90
44559;DHT22;30270;40.238;18.256;2022-09-30T00:31:31;20.90;99.90
44559;DHT22;30270;40.238;18.256;2022-09-30T00:34:00;20.80;99.90
44559;DHT22;30270;40.238;18.256;2022-09-30T00:36:50;20.80;99.90
44559;DHT22;30270;40.238;18.256;2022-09-30T00:39:20;20.80;99.90
44559;DHT22;30270;40.238;18.256;2022-09-30T00:41:51;20.80;99.90
44559;DHT22;30270;40.238;18.256;2022-09-30T00:55:50;20.90;99.90
44559;DHT22;30270;40.238;18.256;2022-09-30T01:01:06;20.80;99.90
44559;DHT22;30270;40.238;18.256;2022-09-30T01:03:43;20.80;99.90
44559;DHT22;30270;40.238;18.256;2022-09-30T01:06:12;20.80;99.90
44559;DHT22;30270;40.238;18.256;2022-09-30T01:08:39;20.80;99.90
44559;DHT22;30270;40.238;18.256;2022-09-30T01:11:07;20.80;99.90
44559;DHT22;30270;40.238;18.256;2022-09-30T01:13:36;20.80;99.90
44559;DHT22;30270;40.238;18.256;2022-09-30T01:16:16;20.80;99.90
44559;DHT22;30270;40.238;18.256;2022-09-30T01:33:00;20.80;99.90
44559;DHT22;30270;40.238;18.256;2022-09-30T01:35:55;20.80;99.90
44559;DHT22;30270;40.238;18.256;2022-09-30T01:47:19;20.90;99.90
44559;DHT22;30270;40.238;18.256;2022-09-30T01:49:55;20.90;99.90
44559;DHT22;30270;40.238;18.256;2022-09-30T01:58:10;20.90;99.90
44559;DHT22;30270;40.238;18.256;2022-09-30T02:00:41;20.90;99.90
44559;DHT22;30270;40.238;18.256;2022-09-30T02:03:16;20.90;99.90
44559;DHT22;30270;40.238;18.256;2022-09-30T02:05:53;20.90;99.90
44559;DHT22;30270;40.238;18.256;2022-09-30T02:11:50;21.00;99.90
44559;DHT22;30270;40.238;18.256;2022-09-30T02:14:33;21.00;99.90
44559;DHT22;30270;40.238;18.256;2022-09-30T02:17:24;21.00;99.90
44559;DHT22;30270;40.238;18.256;2022-09-30T02:20:13;21.00;99.90
44559;DHT22;30270;40.238;18.256;2022-09-30T02:22:55;20.90;99.90
44559;DHT22;30270;40.238;18.256;2022-09-30T02:25:47;20.90;99.90
44559;DHT22;30270;40.238;18.256;2022-09-30T02:28:21;20.90;99.90
44559;DHT22;30270;40.238;18.256;2022-09-30T02:30:54;20.90;99.90
44559;DHT22;30270;40.238;18.256;2022-09-30T02:33:34;21.00;99.90
44559;DHT22;30270;40.238;18.256;2022-09-30T02:36:13;20.90;99.90
44559;DHT22;30270;40.238;18.256;2022-09-30T02:38:45;20.90;99.90
44559;DHT22;30270;40.238;18.256;2022-09-30T02:41:21;20.90;99.90
44559;DHT22;30270;40.238;18.256;2022-09-30T02:43:50;20.90;99.90
44559;DHT22;30270;40.238;18.256;2022-09-30T02:46:33;20.90;99.90
44559;DHT22;30270;40.238;18.256;2022-09-30T02:49:26;20.90;99.90
44559;DHT22;30270;40.238;18.256;2022-09-30T02:57:21;20.80;99.90
44559;DHT22;30270;40.238;18.256;2022-09-30T02:59:51;20.90;99.90
44559;DHT22;30270;40.238;18.256;2022-09-30T03:02:19;20.90;99.90
44559;DHT22;30270;40.238;18.256;2022-09-30T03:04:49;20.90;99.90
44559;DHT22;30270;40.238;18.256;2022-09-30T03:07:17;20.90;99.90
44559;DHT22;30270;40.238;18.256;2022-09-30T03:09:45;20.90;99.90
44559;DHT22;30270;40.238;18.256;2022-09-30T03:15:15;20.90;99.90
44559;DHT22;30270;40.238;18.256;2022-09-30T03:20:43;21.00;99.90
44559;DHT22;30270;40.238;18.256;2022-09-30T03:26:16;21.00;99.90
44559;DHT22;30270;40.238;18.256;2022-09-30T03:28:56;21.00;99.90
44559;DHT22;30270;40.238;18.256;2022-09-30T03:39:56;21.10;99.90
44559;DHT22;30270;40.238;18.256;2022-09-30T03:42:46;21.00;99.90
44559;DHT22;30270;40.238;18.256;2022-09-30T03:48:02;21.10;99.90
44559;DHT22;30270;40.238;18.256;2022-09-30T03:50:32;21.00;99.90
44559;DHT22;30270;40.238;18.256;2022-09-30T03:53:01;21.00;99.90
44559;DHT22;30270;40.238;18.256;2022-09-30T03:55:30;21.00;99.90
44559;DHT22;30270;40.238;18.256;2022-09-30T03:57:59;21.00;99.90
44559;DHT22;30270;40.238;18.256;2022-09-30T04:00:27;21.00;99.90
44559;DHT22;30270;40.238;18.256;2022-09-30T04:02:55;21.00;99.90
44559;DHT22;30270;40.238;18.256;2022-09-30T04:05:24;21.10;99.90
44559;DHT22;30270;40.238;18.256;2022-09-30T04:07:51;21.10;99.90
44559;DHT22;30270;40.238;18.256;2022-09-30T04:10:19;21.10;99.90
44559;DHT22;30270;40.238;18.256;2022-09-30T04:12:46;21.10;99.90
44559;DHT22;30270;40.238;18.256;2022-09-30T04:15:14;21.00;99.90
44559;DHT22;30270;40.238;18.256;2022-09-30T04:17:42;21.00;99.90
44559;DHT22;30270;40.238;18.256;2022-09-30T04:20:10;21.00;99.90
44559;DHT22;30270;40.238;18.256;2022-09-30T04:22:39;21.00;99.90
44559;DHT22;30270;40.238;18.256;2022-09-30T04:25:07;21.00;99.90
44559;DHT22;30270;40.238;18.256;2022-09-30T04:27:35;21.00;99.90
44559;DHT22;30270;40.238;18.256;2022-09-30T04:30:03;21.00;99.90
44559;DHT22;30270;40.238;18.256;2022-09-30T04:32:31;21.00;99.90
44559;DHT22;30270;40.238;18.256;2022-09-30T04:34:59;20.90;99.90
44559;DHT22;30270;40.238;18.256;2022-09-30T04:37:26;20.90;99.90
44559;DHT22;30270;40.238;18.256;2022-09-30T04:39:54;20.90;99.90
44559;DHT22;30270;40.238;18.256;2022-09-30T04:42:22;20.90;99.90
44559;DHT22;30270;40.238;18.256;2022-09-30T04:44:50;20.90;99.90
44559;DHT22;30270;40.238;18.256;2022-09-30T04:47:17;20.90;99.90
44559;DHT22;30270;40.238;18.256;2022-09-30T04:49:45;20.80;99.90
44559;DHT22;30270;40.238;18.256;2022-09-30T04:52:13;20.80;99.90
44559;DHT22;30270;40.238;18.256;2022-09-30T04:54:41;20.80;99.90
44559;DHT22;30270;40.238;18.256;2022-09-30T04:57:08;20.80;99.90
44559;DHT22;30270;40.238;18.256;2022-09-30T04:59:36;20.70;99.90
44559;DHT22;30270;40.238;18.256;2022-09-30T05:02:04;20.80;99.90
44559;DHT22;30270;40.238;18.256;2022-09-30T05:04:32;20.80;99.90
44559;DHT22;30270;40.238;18.256;2022-09-30T05:06:59;20.90;99.90
44559;DHT22;30270;40.238;18.256;2022-09-30T05:09:28;21.00;99.90
44559;DHT22;30270;40.238;18.256;2022-09-30T05:11:56;21.10;99.90
44559;DHT22;30270;40.238;18.256;2022-09-30T05:14:23;21.10;99.90
44559;DHT22;30270;40.238;18.256;2022-09-30T05:16:51;21.30;99.90
44559;DHT22;30270;40.238;18.256;2022-09-30T05:19:19;21.30;99.90
44559;DHT22;30270;40.238;18.256;2022-09-30T05:21:46;21.30;99.90
44559;DHT22;30270;40.238;18.256;2022-09-30T05:24:14;21.40;99.90
44559;DHT22;30270;40.238;18.256;2022-09-30T05:26:42;21.50;99.90
44559;DHT22;30270;40.238;18.256;2022-09-30T05:29:10;21.50;99.90
44559;DHT22;30270;40.238;18.256;2022-09-30T05:31:37;21.70;99.90
44559;DHT22;30270;40.238;18.256;2022-09-30T05:34:05;21.80;99.90
44559;DHT22;30270;40.238;18.256;2022-09-30T05:36:33;21.80;99.90
44559;DHT22;30270;40.238;18.256;2022-09-30T05:39:00;21.90;99.90
44559;DHT22;30270;40.238;18.256;2022-09-30T05:41:28;21.90;99.90
44559;DHT22;30270;40.238;18.256;2022-09-30T05:43:57;22.00;99.90
44559;DHT22;30270;40.238;18.256;2022-09-30T05:46:27;22.10;99.90
44559;DHT22;30270;40.238;18.256;2022-09-30T05:48:55;22.20;99.90
44559;DHT22;30270;40.238;18.256;2022-09-30T05:51:22;22.30;99.90
44559;DHT22;30270;40.238;18.256;2022-09-30T05:53:50;22.40;99.90
44559;DHT22;30270;40.238;18.256;2022-09-30T05:56:18;22.60;99.90
44559;DHT22;30270;40.238;18.256;2022-09-30T05:58:45;22.70;99.90
44559;DHT22;30270;40.238;18.256;2022-09-30T06:01:14;22.90;99.90
44559;DHT22;30270;40.238;18.256;2022-09-30T06:03:43;23.00;99.90
44559;DHT22;30270;40.238;18.256;2022-09-30T06:06:12;22.90;99.90
44559;DHT22;30270;40.238;18.256;2022-09-30T06:08:40;22.90;99.90
44559;DHT22;30270;40.238;18.256;2022-09-30T06:11:11;23.00;99.90
44559;DHT22;30270;40.238;18.256;2022-09-30T06:13:40;23.10;99.90
44559;DHT22;30270;40.238;18.256;2022-09-30T06:16:09;23.20;99.90
44559;DHT22;30270;40.238;18.256;2022-09-30T06:18:37;23.40;99.90
44559;DHT22;30270;40.238;18.256;2022-09-30T06:21:10;23.40;99.90
44559;DHT22;30270;40.238;18.256;2022-09-30T06:23:39;23.70;99.90
44559;DHT22;30270;40.238;18.256;2022-09-30T06:26:10;23.90;99.90
44559;DHT22;30270;40.238;18.256;2022-09-30T06:28:39;24.00;99.90
44559;DHT22;30270;40.238;18.256;2022-09-30T06:31:07;24.20;99.90
44559;DHT22;30270;40.238;18.256;2022-09-30T06:33:34;24.30;99.90
44559;DHT22;30270;40.238;18.256;2022-09-30T06:36:02;24.30;99.90
44559;DHT22;30270;40.238;18.256;2022-09-30T06:38:32;24.40;99.90
44559;DHT22;30270;40.238;18.256;2022-09-30T06:41:01;24.50;99.90
44559;DHT22;30270;40.238;18.256;2022-09-30T06:43:29;24.50;99.90
44559;DHT22;30270;40.238;18.256;2022-09-30T06:45:56;24.50;99.90
44559;DHT22;30270;40.238;18.256;2022-09-30T06:48:31;24.60;99.90
44559;DHT22;30270;40.238;18.256;2022-09-30T06:51:03;24.80;99.90
44559;DHT22;30270;40.238;18.256;2022-09-30T06:53:31;24.90;99.90
44559;DHT22;30270;40.238;18.256;2022-09-30T06:56:00;25.00;99.90
44559;DHT22;30270;40.238;18.256;2022-09-30T06:58:28;25.10;99.90
44559;DHT22;30270;40.238;18.256;2022-09-30T07:01:03;25.20;99.90
44559;DHT22;30270;40.238;18.256;2022-09-30T07:03:32;25.30;99.90
44559;DHT22;30270;40.238;18.256;2022-09-30T07:06:03;25.20;99.90
44559;DHT22;30270;40.238;18.256;2022-09-30T07:08:33;25.20;99.90
44559;DHT22;30270;40.238;18.256;2022-09-30T07:11:06;25.10;99.90
44559;DHT22;30270;40.238;18.256;2022-09-30T07:13:42;25.20;99.90
44559;DHT22;30270;40.238;18.256;2022-09-30T07:16:13;25.30;99.90
44559;DHT22;30270;40.238;18.256;2022-09-30T07:18:41;25.30;99.90
44559;DHT22;30270;40.238;18.256;2022-09-30T07:21:10;25.20;99.90
44559;DHT22;30270;40.238;18.256;2022-09-30T07:23:39;25.20;99.90
44559;DHT22;30270;40.238;18.256;2022-09-30T07:26:17;25.20;99.90
44559;DHT22;30270;40.238;18.256;2022-09-30T07:28:45;25.30;99.90
44559;DHT22;30270;40.238;18.256;2022-09-30T07:31:16;25.40;99.90
44559;DHT22;30270;40.238;18.256;2022-09-30T07:34:02;25.50;99.90
44559;DHT22;30270;40.238;18.256;2022-09-30T07:36:31;25.60;99.90
44559;DHT22;30270;40.238;18.256;2022-09-30T07:39:00;25.70;99.90
44559;DHT22;30270;40.238;18.256;2022-09-30T07:41:33;25.90;99.90
44559;DHT22;30270;40.238;18.256;2022-09-30T07:44:03;26.00;99.90
44559;DHT22;30270;40.238;18.256;2022-09-30T07:46:34;26.10;99.90
44559;DHT22;30270;40.238;18.256;2022-09-30T07:49:06;26.10;99.90
44559;DHT22;30270;40.238;18.256;2022-09-30T07:51:37;26.00;99.90
44559;DHT22;30270;40.238;18.256;2022-09-30T07:54:12;26.00;99.90
44559;DHT22;30270;40.238;18.256;2022-09-30T07:56:40;25.90;99.90
44559;DHT22;30270;40.238;18.256;2022-09-30T07:59:32;26.00;99.90
44559;DHT22;30270;40.238;18.256;2022-09-30T08:02:00;26.30;99.90
44559;DHT22;30270;40.238;18.256;2022-09-30T08:04:28;26.40;99.90
44559;DHT22;30270;40.238;18.256;2022-09-30T08:06:59;26.50;99.90
44559;DHT22;30270;40.238;18.256;2022-09-30T08:09:28;26.60;99.90
44559;DHT22;30270;40.238;18.256;2022-09-30T08:11:56;26.70;99.90
44559;DHT22;30270;40.238;18.256;2022-09-30T08:14:25;26.60;99.90
44559;DHT22;30270;40.238;18.256;2022-09-30T08:16:54;26.60;99.90
44559;DHT22;30270;40.238;18.256;2022-09-30T08:19:24;26.60;99.90
44559;DHT22;30270;40.238;18.256;2022-09-30T08:21:53;26.40;99.90
44559;DHT22;30270;40.238;18.256;2022-09-30T08:24:21;26.60;99.90
44559;DHT22;30270;40.238;18.256;2022-09-30T08:26:50;26.60;99.90
44559;DHT22;30270;40.238;18.256;2022-09-30T08:29:18;26.40;99.90
44559;DHT22;30270;40.238;18.256;2022-09-30T08:31:51;26.40;99.90
44559;DHT22;30270;40.238;18.256;2022-09-30T08:34:19;26.30;99.90
44559;DHT22;30270;40.238;18.256;2022-09-30T08:36:47;26.40;99.90
44559;DHT22;30270;40.238;18.256;2022-09-30T08:39:15;26.60;99.90
44559;DHT22;30270;40.238;18.256;2022-09-30T08:44:47;26.90;99.90
44559;DHT22;30270;40.238;18.256;2022-09-30T08:47:26;27.10;99.90
44559;DHT22;30270;40.238;18.256;2022-09-30T08:50:18;27.10;99.90
44559;DHT22;30270;40.238;18.256;2022-09-30T08:52:52;27.20;99.90
44559;DHT22;30270;40.238;18.256;2022-09-30T08:55:45;27.30;99.90
44559;DHT22;30270;40.238;18.256;2022-09-30T08:58:25;27.30;99.90
44559;DHT22;30270;40.238;18.256;2022-09-30T09:01:10;27.30;99.90
44559;DHT22;30270;40.238;18.256;2022-09-30T09:03:41;27.60;99.90
44559;DHT22;30270;40.238;18.256;2022-09-30T09:09:15;27.20;99.90
44559;DHT22;30270;40.238;18.256;2022-09-30T09:20:15;27.40;99.90
44559;DHT22;30270;40.238;18.256;2022-09-30T09:22:44;27.50;99.90
44559;DHT22;30270;40.238;18.256;2022-09-30T09:25:18;27.60;99.90
44559;DHT22;30270;40.238;18.256;2022-09-30T09:30:23;27.50;99.90
44559;DHT22;30270;40.238;18.256;2022-09-30T09:32:53;27.40;99.90
44559;DHT22;30270;40.238;18.256;2022-09-30T09:38:36;27.40;99.90
44559;DHT22;30270;40.238;18.256;2022-09-30T09:51:55;27.30;99.90
44559;DHT22;30270;40.238;18.256;2022-09-30T09:54:25;27.50;99.90
44559;DHT22;30270;40.238;18.256;2022-09-30T09:57:11;27.70;99.90
44559;DHT22;30270;40.238;18.256;2022-09-30T09:59:57;27.60;99.80
44559;DHT22;30270;40.238;18.256;2022-09-30T10:02:32;27.70;99.10
44559;DHT22;30270;40.238;18.256;2022-09-30T10:05:00;27.70;98.80
44559;DHT22;30270;40.238;18.256;2022-09-30T10:07:32;27.60;98.70
44559;DHT22;30270;40.238;18.256;2022-09-30T10:12:44;27.70;98.80
44559;DHT22;30270;40.238;18.256;2022-09-30T10:15:23;27.60;97.60
44559;DHT22;30270;40.238;18.256;2022-09-30T10:17:53;27.70;97.80
44559;DHT22;30270;40.238;18.256;2022-09-30T10:20:27;27.70;97.40
44559;DHT22;30270;40.238;18.256;2022-09-30T10:23:36;27.70;97.80
44559;DHT22;30270;40.238;18.256;2022-09-30T10:26:02;27.70;98.20
44559;DHT22;30270;40.238;18.256;2022-09-30T10:28:33;27.90;98.60
44559;DHT22;30270;40.238;18.256;2022-09-30T10:31:19;27.90;97.90
44559;DHT22;30270;40.238;18.256;2022-09-30T10:34:14;27.70;97.90
44559;DHT22;30270;40.238;18.256;2022-09-30T10:36:44;27.40;97.50
44559;DHT22;30270;40.238;18.256;2022-09-30T10:42:02;27.70;97.20
44559;DHT22;30270;40.238;18.256;2022-09-30T10:44:45;27.70;97.60
44559;DHT22;30270;40.238;18.256;2022-09-30T10:47:21;27.70;97.20
44559;DHT22;30270;40.238;18.256;2022-09-30T10:49:59;27.60;97.40
44559;DHT22;30270;40.238;18.256;2022-09-30T10:52:30;27.70;97.30
44559;DHT22;30270;40.238;18.256;2022-09-30T10:55:04;27.80;97.70
44559;DHT22;30270;40.238;18.256;2022-09-30T10:57:36;27.90;97.80
44559;DHT22;30270;40.238;18.256;2022-09-30T11:00:13;27.70;97.90
44559;DHT22;30270;40.238;18.256;2022-09-30T11:02:52;27.60;98.20
44559;DHT22;30270;40.238;18.256;2022-09-30T11:05:26;27.60;98.00
44559;DHT22;30270;40.238;18.256;2022-09-30T11:08:20;27.50;98.20
44559;DHT22;30270;40.238;18.256;2022-09-30T11:11:09;27.60;98.20
44559;DHT22;30270;40.238;18.256;2022-09-30T11:19:27;27.10;99.80
44559;DHT22;30270;40.238;18.256;2022-09-30T11:30:17;26.60;99.90
44559;DHT22;30270;40.238;18.256;2022-09-30T11:35:37;26.70;99.90
44559;DHT22;30270;40.238;18.256;2022-09-30T11:41:20;26.80;99.90
44559;DHT22;30270;40.238;18.256;2022-09-30T11:44:12;26.90;99.90
44559;DHT22;30270;40.238;18.256;2022-09-30T12:00:18;26.30;99.90
44559;DHT22;30270;40.238;18.256;2022-09-30T12:03:19;26.60;99.90
44559;DHT22;30270;40.238;18.256;2022-09-30T12:06:02;26.70;99.90
44559;DHT22;30270;40.238;18.256;2022-09-30T12:08:36;26.60;99.90
44559;DHT22;30270;40.238;18.256;2022-09-30T12:11:17;26.60;99.90
44559;DHT22;30270;40.238;18.256;2022-09-30T12:13:54;26.80;99.90
44559;DHT22;30270;40.238;18.256;2022-09-30T12:16:27;26.90;99.80
44559;DHT22;30270;40.238;18.256;2022-09-30T12:22:03;26.80;99.90
44559;DHT22;30270;40.238;18.256;2022-09-30T12:24:41;26.90;99.90
44559;DHT22;30270;40.238;18.256;2022-09-30T12:30:09;26.60;99.80
44559;DHT22;30270;40.238;18.256;2022-09-30T12:35:54;26.50;99.80
44559;DHT22;30270;40.238;18.256;2022-09-30T12:38:56;26.60;99.40
44559;DHT22;30270;40.238;18.256;2022-09-30T12:49:37;26.40;99.10
44559;DHT22;30270;40.238;18.256;2022-09-30T12:52:14;26.30;99.30
44559;DHT22;30270;40.238;18.256;2022-09-30T12:57:30;26.30;99.90
44559;DHT22;30270;40.238;18.256;2022-09-30T13:02:45;26.40;99.20
44559;DHT22;30270;40.238;18.256;2022-09-30T13:15:46;26.50;99.30
44559;DHT22;30270;40.238;18.256;2022-09-30T13:39:28;26.10;99.80
44559;DHT22;30270;40.238;18.256;2022-09-30T13:42:09;26.30;99.90
44559;DHT22;30270;40.238;18.256;2022-09-30T13:45:05;26.30;99.00
44559;DHT22;30270;40.238;18.256;2022-09-30T13:47:44;26.30;99.10
44559;DHT22;30270;40.238;18.256;2022-09-30T13:52:59;26.30;98.80
44559;DHT22;30270;40.238;18.256;2022-09-30T13:55:44;26.20;99.70
44559;DHT22;30270;40.238;18.256;2022-09-30T13:58:42;26.20;99.50
44559;DHT22;30270;40.238;18.256;2022-09-30T14:10:31;25.70;99.90
44559;DHT22;30270;40.238;18.256;2022-09-30T14:23:38;25.70;99.90
44559;DHT22;30270;40.238;18.256;2022-09-30T14:31:19;25.70;99.90
44559;DHT22;30270;40.238;18.256;2022-09-30T14:33:48;25.60;99.90
44559;DHT22;30270;40.238;18.256;2022-09-30T14:36:19;25.50;99.90
44559;DHT22;30270;40.238;18.256;2022-09-30T14:38:52;25.50;99.90
44559;DHT22;30270;40.238;18.256;2022-09-30T14:41:22;25.40;99.90
44559;DHT22;30270;40.238;18.256;2022-09-30T14:43:54;25.40;99.90
44559;DHT22;30270;40.238;18.256;2022-09-30T14:46:30;25.40;99.90
44559;DHT22;30270;40.238;18.256;2022-09-30T14:49:05;25.40;99.90
44559;DHT22;30270;40.238;18.256;2022-09-30T14:51:37;25.20;99.90
44559;DHT22;30270;40.238;18.256;2022-09-30T14:54:24;25.20;99.90
44559;DHT22;30270;40.238;18.256;2022-09-30T14:56:52;25.30;99.90
44559;DHT22;30270;40.238;18.256;2022-09-30T14:59:25;25.30;99.90
44559;DHT22;30270;40.238;18.256;2022-09-30T15:01:59;25.30;99.90
44559;DHT22;30270;40.238;18.256;2022-09-30T15:04:33;25.30;99.90
44559;DHT22;30270;40.238;18.256;2022-09-30T15:07:03;25.30;99.90
44559;DHT22;30270;40.238;18.256;2022-09-30T15:09:38;25.20;99.90
44559;DHT22;30270;40.238;18.256;2022-09-30T15:12:21;25.20;99.90
44559;DHT22;30270;40.238;18.256;2022-09-30T15:17:37;24.90;99.90
44559;DHT22;30270;40.238;18.256;2022-09-30T15:20:34;24.80;99.90
44559;DHT22;30270;40.238;18.256;2022-09-30T15:23:13;24.80;99.90
44559;DHT22;30270;40.238;18.256;2022-09-30T15:25:42;24.80;99.90
44559;DHT22;30270;40.238;18.256;2022-09-30T15:28:10;24.70;99.90
44559;DHT22;30270;40.238;18.256;2022-09-30T15:30:38;24.70;99.90
44559;DHT22;30270;40.238;18.256;2022-09-30T15:33:17;24.70;99.90
44559;DHT22;30270;40.238;18.256;2022-09-30T15:35:45;24.70;99.90
44559;DHT22;30270;40.238;18.256;2022-09-30T15:38:24;24.80;99.90
44559;DHT22;30270;40.238;18.256;2022-09-30T15:41:02;24.70;99.90
44559;DHT22;30270;40.238;18.256;2022-09-30T15:43:35;24.60;99.90
44559;DHT22;30270;40.238;18.256;2022-09-30T15:46:27;24.60;99.90
44559;DHT22;30270;40.238;18.256;2022-09-30T15:49:01;24.50;99.90
44559;DHT22;30270;40.238;18.256;2022-09-30T15:51:36;24.50;99.90
44559;DHT22;30270;40.238;18.256;2022-09-30T15:54:29;24.50;99.90
44559;DHT22;30270;40.238;18.256;2022-09-30T15:57:02;24.40;99.90
44559;DHT22;30270;40.238;18.256;2022-09-30T16:00:00;24.30;99.90
44559;DHT22;30270;40.238;18.256;2022-09-30T16:02:30;24.20;99.90
44559;DHT22;30270;40.238;18.256;2022-09-30T16:04:59;24.10;99.90
44559;DHT22;30270;40.238;18.256;2022-09-30T16:07:31;24.10;99.90
44559;DHT22;30270;40.238;18.256;2022-09-30T16:09:59;24.00;99.90
44559;DHT22;30270;40.238;18.256;2022-09-30T16:12:31;24.00;99.90
44559;DHT22;30270;40.238;18.256;2022-09-30T16:15:09;24.00;99.90
44559;DHT22;30270;40.238;18.256;2022-09-30T16:17:47;23.90;99.90
44559;DHT22;30270;40.238;18.256;2022-09-30T16:25:22;23.90;99.90
44559;DHT22;30270;40.238;18.256;2022-09-30T16:30:48;23.80;99.90
44559;DHT22;30270;40.238;18.256;2022-09-30T16:33:17;23.80;99.90
44559;DHT22;30270;40.238;18.256;2022-09-30T16:35:45;23.80;99.90
44559;DHT22;30270;40.238;18.256;2022-09-30T16:38:17;23.80;99.90
44559;DHT22;30270;40.238;18.256;2022-09-30T16:40:46;23.80;99.90
44559;DHT22;30270;40.238;18.256;2022-09-30T16:43:14;23.70;99.90
44559;DHT22;30270;40.238;18.256;2022-09-30T16:45:43;23.70;99.90
44559;DHT22;30270;40.238;18.256;2022-09-30T16:48:14;23.70;99.90
44559;DHT22;30270;40.238;18.256;2022-09-30T16:50:48;23.60;99.90
44559;DHT22;30270;40.238;18.256;2022-09-30T16:53:18;23.70;99.90
44559;DHT22;30270;40.238;18.256;2022-09-30T16:55:46;23.60;99.90
44559;DHT22;30270;40.238;18.256;2022-09-30T16:58:14;23.60;99.90
44559;DHT22;30270;40.238;18.256;2022-09-30T17:00:43;23.40;99.90
44559;DHT22;30270;40.238;18.256;2022-09-30T17:03:13;23.40;99.90
44559;DHT22;30270;40.238;18.256;2022-09-30T17:05:43;23.40;99.90
44559;DHT22;30270;40.238;18.256;2022-09-30T17:08:13;23.40;99.90
44559;DHT22;30270;40.238;18.256;2022-09-30T17:10:42;23.30;99.90
44559;DHT22;30270;40.238;18.256;2022-09-30T17:13:13;23.20;99.90
44559;DHT22;30270;40.238;18.256;2022-09-30T17:15:50;23.30;99.90
44559;DHT22;30270;40.238;18.256;2022-09-30T17:18:18;23.30;99.90
44559;DHT22;30270;40.238;18.256;2022-09-30T17:20:47;23.20;99.90
44559;DHT22;30270;40.238;18.256;2022-09-30T17:23:20;23.20;99.90
44559;DHT22;30270;40.238;18.256;2022-09-30T17:25:49;23.20;99.90
44559;DHT22;30270;40.238;18.256;2022-09-30T17:28:17;23.30;99.90
44559;DHT22;30270;40.238;18.256;2022-09-30T17:30:46;23.20;99.90
44559;DHT22;30270;40.238;18.256;2022-09-30T17:33:17;23.20;99.90
44559;DHT22;30270;40.238;18.256;2022-09-30T17:36:02;23.10;99.90
44559;DHT22;30270;40.238;18.256;2022-09-30T17:38:31;23.10;99.90
44559;DHT22;30270;40.238;18.256;2022-09-30T17:40:59;23.10;99.90
44559;DHT22;30270;40.238;18.256;2022-09-30T17:43:47;23.10;99.90
44559;DHT22;30270;40.238;18.256;2022-09-30T17:46:16;23.10;99.90
44559;DHT22;30270;40.238;18.256;2022-09-30T17:48:54;23.00;99.90
44559;DHT22;30270;40.238;18.256;2022-09-30T17:51:23;22.90;99.90
44559;DHT22;30270;40.238;18.256;2022-09-30T17:53:51;22.80;99.90
44559;DHT22;30270;40.238;18.256;2022-09-30T17:56:20;22.80;99.90
44559;DHT22;30270;40.238;18.256;2022-09-30T17:58:50;22.80;99.90
44559;DHT22;30270;40.238;18.256;2022-09-30T18:01:19;22.80;99.90
44559;DHT22;30270;40.238;18.256;2022-09-30T18:03:48;22.80;99.90
44559;DHT22;30270;40.238;18.256;2022-09-30T18:06:20;22.90;99.90
44559;DHT22;30270;40.238;18.256;2022-09-30T18:08:51;22.80;99.90
44559;DHT22;30270;40.238;18.256;2022-09-30T18:11:24;22.80;99.90
44559;DHT22;30270;40.238;18.256;2022-09-30T18:13:57;22.80;99.90
44559;DHT22;30270;40.238;18.256;2022-09-30T18:16:27;22.70;99.90
44559;DHT22;30270;40.238;18.256;2022-09-30T18:19:02;22.80;99.90
44559;DHT22;30270;40.238;18.256;2022-09-30T18:21:31;22.70;99.90
44559;DHT22;30270;40.238;18.256;2022-09-30T18:24:01;22.70;99.90
44559;DHT22;30270;40.238;18.256;2022-09-30T18:26:31;22.70;99.90
44559;DHT22;30270;40.238;18.256;2022-09-30T18:28:59;22.70;99.90
44559;DHT22;30270;40.238;18.256;2022-09-30T18:31:26;22.70;99.90
44559;DHT22;30270;40.238;18.256;2022-09-30T18:33:56;22.80;99.90
44559;DHT22;30270;40.238;18.256;2022-09-30T18:36:25;22.70;99.90
44559;DHT22;30270;40.238;18.256;2022-09-30T18:38:56;22.80;99.90
44559;DHT22;30270;40.238;18.256;2022-09-30T18:41:25;22.80;99.90
44559;DHT22;30270;40.238;18.256;2022-09-30T18:43:54;22.70;99.90
44559;DHT22;30270;40.238;18.256;2022-09-30T18:46:30;22.80;99.90
44559;DHT22;30270;40.238;18.256;2022-09-30T18:48:58;22.70;99.90
44559;DHT22;30270;40.238;18.256;2022-09-30T18:51:26;22.70;99.90
44559;DHT22;30270;40.238;18.256;2022-09-30T18:53:57;22.80;99.90
44559;DHT22;30270;40.238;18.256;2022-09-30T18:56:29;22.80;99.90
44559;DHT22;30270;40.238;18.256;2022-09-30T18:59:02;22.70;99.90
44559;DHT22;30270;40.238;18.256;2022-09-30T19:01:31;22.80;99.90
44559;DHT22;30270;40.238;18.256;2022-09-30T19:04:03;22.70;99.90
44559;DHT22;30270;40.238;18.256;2022-09-30T19:06:32;22.80;99.90
44559;DHT22;30270;40.238;18.256;2022-09-30T19:08:59;22.80;99.90
44559;DHT22;30270;40.238;18.256;2022-09-30T19:11:28;22.70;99.90
44559;DHT22;30270;40.238;18.256;2022-09-30T19:13:58;22.80;99.90
44559;DHT22;30270;40.238;18.256;2022-09-30T19:16:30;22.70;99.90
44559;DHT22;30270;40.238;18.256;2022-09-30T19:19:05;22.70;99.90
44559;DHT22;30270;40.238;18.256;2022-09-30T19:21:37;22.70;99.90
44559;DHT22;30270;40.238;18.256;2022-09-30T19:24:08;22.70;99.90
44559;DHT22;30270;40.238;18.256;2022-09-30T19:26:37;22.70;99.90
44559;DHT22;30270;40.238;18.256;2022-09-30T19:29:05;22.70;99.90
44559;DHT22;30270;40.238;18.256;2022-09-30T19:31:36;22.60;99.90
44559;DHT22;30270;40.238;18.256;2022-09-30T19:34:03;22.60;99.90
44559;DHT22;30270;40.238;18.256;2022-09-30T19:36:35;22.60;99.90
44559;DHT22;30270;40.238;18.256;2022-09-30T19:39:10;22.60;99.90
44559;DHT22;30270;40.238;18.256;2022-09-30T19:41:39;22.50;99.90
44559;DHT22;30270;40.238;18.256;2022-09-30T19:44:07;22.50;99.90